Time;durP1;ratioP1;P1;durP2;ratioP2;P2;SDS_P1;SDS_P2;PMS_P1;PMS_P2;Temp;Humidity;BMP_temperature;BMP_pressure;BME280_temperature;BME280_humidity;BME280_pressure;Samples;Min_cycle;Max_cycle;Signal;HPM_P1;HPM_P2
2023/01/03 00:01:26;;;;;;;11.1;7;;;;;;;;;;;;;
2023/01/03 00:03:59;;;;;;;10.9;7.5;;;;;;;;;;;;;
2023/01/03 00:06:31;;;;;;;9.8;6.1;;;;;;;;;;;;;
2023/01/03 00:09:08;;;;;;;8.8;5.4;;;;;;;;;;;;;
2023/01/03 00:14:09;;;;;;;7.3;4.4;;;;;;;;;;;;;
2023/01/03 00:16:37;;;;;;;5.7;4;;;;;;;;;;;;;
2023/01/03 00:19:06;;;;;;;7.6;4.3;;;;;;;;;;;;;
2023/01/03 00:21:38;;;;;;;6.5;3.7;;;;;;;;;;;;;
2023/01/03 00:24:09;;;;;;;5.9;3.8;;;;;;;;;;;;;
2023/01/03 00:26:36;;;;;;;4.7;3.2;;;;;;;;;;;;;
2023/01/03 00:29:02;;;;;;;4.5;3.3;;;;;;;;;;;;;
2023/01/03 00:31:34;;;;;;;4.8;3.1;;;;;;;;;;;;;
2023/01/03 00:33:59;;;;;;;4.2;2.4;;;;;;;;;;;;;
2023/01/03 00:36:25;;;;;;;3.6;2.6;;;;;;;;;;;;;
2023/01/03 00:38:50;;;;;;;3.1;2.4;;;;;;;;;;;;;
2023/01/03 00:41:15;;;;;;;5.6;3.4;;;;;;;;;;;;;
2023/01/03 00:43:41;;;;;;;6.4;3.6;;;;;;;;;;;;;
2023/01/03 00:46:05;;;;;;;4.7;2.8;;;;;;;;;;;;;
2023/01/03 00:48:31;;;;;;;8.4;4.4;;;;;;;;;;;;;
2023/01/03 00:50:56;;;;;;;10.3;4.7;;;;;;;;;;;;;
2023/01/03 00:53:21;;;;;;;8.4;4.5;;;;;;;;;;;;;
2023/01/03 00:55:46;;;;;;;5.7;3.6;;;;;;;;;;;;;
2023/01/03 00:58:11;;;;;;;5.7;3.6;;;;;;;;;;;;;
2023/01/03 01:00:36;;;;;;;6.5;4;;;;;;;;;;;;;
2023/01/03 01:03:01;;;;;;;6.3;3.7;;;;;;;;;;;;;
2023/01/03 01:05:28;;;;;;;5.3;3.6;;;;;;;;;;;;;
2023/01/03 01:07:53;;;;;;;5.7;3.6;;;;;;;;;;;;;
2023/01/03 01:10:20;;;;;;;6;4;;;;;;;;;;;;;
2023/01/03 01:12:44;;;;;;;6.3;3.6;;;;;;;;;;;;;
2023/01/03 01:15:10;;;;;;;5.7;3.7;;;;;;;;;;;;;
2023/01/03 01:17:35;;;;;;;6;3.6;;;;;;;;;;;;;
2023/01/03 01:20:01;;;;;;;5.6;3.5;;;;;;;;;;;;;
2023/01/03 01:22:27;;;;;;;5.2;3.4;;;;;;;;;;;;;
2023/01/03 01:24:53;;;;;;;4.6;3.3;;;;;;;;;;;;;
2023/01/03 01:27:18;;;;;;;5.1;3.6;;;;;;;;;;;;;
2023/01/03 01:29:44;;;;;;;4.3;3.4;;;;;;;;;;;;;
2023/01/03 01:32:09;;;;;;;4.5;3.7;;;;;;;;;;;;;
2023/01/03 01:34:34;;;;;;;4.6;3.4;;;;;;;;;;;;;
2023/01/03 01:37:00;;;;;;;5.6;3.6;;;;;;;;;;;;;
2023/01/03 01:39:25;;;;;;;6.1;3.5;;;;;;;;;;;;;
2023/01/03 01:45:17;;;;;;;7.1;3.7;;;;;;;;;;;;;
2023/01/03 01:46:42;;;;;;;6.3;3.6;;;;;;;;;;;;;
2023/01/03 01:49:07;;;;;;;6.5;3.4;;;;;;;;;;;;;
2023/01/03 01:51:32;;;;;;;4.7;3.5;;;;;;;;;;;;;
2023/01/03 01:53:59;;;;;;;5.8;3.3;;;;;;;;;;;;;
2023/01/03 01:56:23;;;;;;;3.8;3;;;;;;;;;;;;;
2023/01/03 01:58:48;;;;;;;4.7;2.9;;;;;;;;;;;;;
2023/01/03 02:01:15;;;;;;;5.9;3.4;;;;;;;;;;;;;
2023/01/03 02:03:40;;;;;;;4.3;2.9;;;;;;;;;;;;;
2023/01/03 02:06:06;;;;;;;4.3;2.7;;;;;;;;;;;;;
2023/01/03 02:08:31;;;;;;;4.8;3.1;;;;;;;;;;;;;
2023/01/03 02:10:58;;;;;;;5.2;3.4;;;;;;;;;;;;;
2023/01/03 02:13:23;;;;;;;4.7;3.3;;;;;;;;;;;;;
2023/01/03 02:15:49;;;;;;;6.1;3.3;;;;;;;;;;;;;
2023/01/03 02:18:14;;;;;;;4.4;3;;;;;;;;;;;;;
2023/01/03 02:20:41;;;;;;;6.4;3.5;;;;;;;;;;;;;
2023/01/03 02:23:07;;;;;;;5;3;;;;;;;;;;;;;
2023/01/03 02:25:32;;;;;;;4.1;3;;;;;;;;;;;;;
2023/01/03 02:27:57;;;;;;;5;3.1;;;;;;;;;;;;;
2023/01/03 02:30:22;;;;;;;4.3;2.7;;;;;;;;;;;;;
2023/01/03 02:32:47;;;;;;;4.6;2.8;;;;;;;;;;;;;
2023/01/03 02:35:12;;;;;;;4.8;3.2;;;;;;;;;;;;;
2023/01/03 02:37:39;;;;;;;5.5;3;;;;;;;;;;;;;
2023/01/03 02:40:04;;;;;;;3.8;3;;;;;;;;;;;;;
2023/01/03 02:44:57;;;;;;;3.4;2.6;;;;;;;;;;;;;
2023/01/03 02:47:22;;;;;;;4;2.4;;;;;;;;;;;;;
2023/01/03 02:49:48;;;;;;;6;3.6;;;;;;;;;;;;;
2023/01/03 02:52:13;;;;;;;8.3;5.1;;;;;;;;;;;;;
2023/01/03 02:54:39;;;;;;;11;5.8;;;;;;;;;;;;;
2023/01/03 02:57:05;;;;;;;7.1;3.9;;;;;;;;;;;;;
2023/01/03 02:59:30;;;;;;;4.6;3.1;;;;;;;;;;;;;
2023/01/03 03:01:55;;;;;;;4.3;2.9;;;;;;;;;;;;;
2023/01/03 03:04:21;;;;;;;4.1;2.5;;;;;;;;;;;;;
2023/01/03 03:06:46;;;;;;;3.7;2.7;;;;;;;;;;;;;
2023/01/03 03:09:11;;;;;;;4;2.8;;;;;;;;;;;;;
2023/01/03 03:14:01;;;;;;;3.9;2.6;;;;;;;;;;;;;
2023/01/03 03:16:47;;;;;;;6;2.9;;;;;;;;;;;;;
2023/01/03 03:18:52;;;;;;;4.8;2.9;;;;;;;;;;;;;
2023/01/03 03:26:07;;;;;;;3.7;2.8;;;;;;;;;;;;;
2023/01/03 03:28:35;;;;;;;4.8;2.8;;;;;;;;;;;;;
2023/01/03 03:30:58;;;;;;;4.7;2.8;;;;;;;;;;;;;
2023/01/03 03:33:23;;;;;;;4.3;2.9;;;;;;;;;;;;;
2023/01/03 03:35:48;;;;;;;4.2;2.7;;;;;;;;;;;;;
2023/01/03 03:38:14;;;;;;;4.7;2.9;;;;;;;;;;;;;
2023/01/03 03:45:46;;;;;;;4.6;2.9;;;;;;;;;;;;;
2023/01/03 03:48:11;;;;;;;4.9;3.1;;;;;;;;;;;;;
2023/01/03 03:50:36;;;;;;;3.7;2.8;;;;;;;;;;;;;
2023/01/03 03:53:01;;;;;;;5;2.8;;;;;;;;;;;;;
2023/01/03 03:55:26;;;;;;;4.5;2.9;;;;;;;;;;;;;
2023/01/03 03:57:51;;;;;;;4.2;2.5;;;;;;;;;;;;;
2023/01/03 04:02:34;;;;;;;3.7;2.6;;;;;;;7.09;83.94043;947.4781;;;;
2023/01/03 04:05:07;;;;;;;4.2;3.1;;;;;;;6.9;84.75293;947.5356;;;;
2023/01/03 04:07:38;;;;;;;4.5;3.6;;;;;;;6.84;85.28516;947.543;;;;
2023/01/03 04:10:03;;;;;;;4.8;3;;;;;;;6.92;85.00488;947.4769;;;;
2023/01/03 04:12:28;;;;;;;3.2;2.8;;;;;;;6.94;85.08984;947.4138;;;;
2023/01/03 04:14:55;;;;;;;4.7;2.9;;;;;;;6.99;85.56445;947.5147;;;;
2023/01/03 04:17:20;;;;;;;4.8;2.9;;;;;;;7;85.38379;947.5101;;;;
2023/01/03 04:19:45;;;;;;;5.2;3.1;;;;;;;7.01;85.85156;947.4847;;;;
2023/01/03 04:22:12;;;;;;;3.8;2.8;;;;;;;7.02;86.4541;947.512;;;;
2023/01/03 04:24:37;;;;;;;4.2;2.8;;;;;;;7.05;86.57227;947.4711;;;;
2023/01/03 04:27:05;;;;;;;4.5;2.9;;;;;;;7.03;86.43066;947.5201;;;;
2023/01/03 04:29:30;;;;;;;4.1;3.4;;;;;;;6.94;86.48242;947.5286;;;;
2023/01/03 04:31:56;;;;;;;4.5;2.9;;;;;;;6.95;86.68652;947.5446;;;;
2023/01/03 04:34:21;;;;;;;3.9;2.9;;;;;;;6.95;86.98047;947.5154;;;;
2023/01/03 04:36:51;;;;;;;4.7;3;;;;;;;6.93;87.35254;947.4854;;;;
2023/01/03 04:39:16;;;;;;;4;3;;;;;;;6.94;87.10547;947.4952;;;;
2023/01/03 04:41:45;;;;;;;6.4;4.1;;;;;;;6.83;87.17383;947.4609;;;;
2023/01/03 04:44:16;;;;;;;7.5;5.1;;;;;;;6.74;88.25293;947.4167;;;;
2023/01/03 04:46:47;;;;;;;11.7;7;;;;;;;6.78;88.33008;947.5223;;;;
2023/01/03 04:49:16;;;;;;;14.5;8.5;;;;;;;6.7;88.51563;947.4438;;;;
2023/01/03 04:51:41;;;;;;;12.7;7.7;;;;;;;6.7;88.96777;947.4208;;;;
2023/01/03 04:54:09;;;;;;;13;8.3;;;;;;;6.61;89.46094;947.4889;;;;
2023/01/03 04:56:35;;;;;;;13.8;7.9;;;;;;;6.7;89.37793;947.4947;;;;
2023/01/03 04:59:02;;;;;;;9.7;6;;;;;;;6.81;89.30957;947.5419;;;;
2023/01/03 05:01:27;;;;;;;11.7;7.3;;;;;;;6.91;89.33008;947.5606;;;;
2023/01/03 05:03:55;;;;;;;14.6;9.1;;;;;;;6.83;89.48535;947.6384;;;;
2023/01/03 05:06:20;;;;;;;12;8.2;;;;;;;6.78;89.74512;947.6267;;;;
2023/01/03 05:08:47;;;;;;;10.5;7;;;;;;;6.69;89.98438;947.6041;;;;
2023/01/03 05:11:11;;;;;;;12;6.9;;;;;;;6.78;89.79102;947.6021;;;;
2023/01/03 05:13:37;;;;;;;11.1;6.9;;;;;;;6.91;89.43066;947.6872;;;;
2023/01/03 05:16:05;;;;;;;9.6;6;;;;;;;6.93;89.37012;947.7238;;;;
2023/01/03 05:18:32;;;;;;;8.6;6.1;;;;;;;7.01;88.96777;947.7034;;;;
2023/01/03 05:25:51;;;;;;;5.5;3.8;;;;;;;6.98;89.08496;947.7321;;;;
2023/01/03 05:28:14;;;;;;;6.3;3.8;;;;;;;7.02;89.09277;947.7805;;;;
2023/01/03 05:30:41;;;;;;;5.5;3.4;;;;;;;7.02;89.08105;947.7838;;;;
2023/01/03 05:33:06;;;;;;;6.8;3.9;;;;;;;6.99;89.42676;947.8264;;;;
2023/01/03 05:35:34;;;;;;;5;3.2;;;;;;;6.93;89.89844;947.8875;;;;
2023/01/03 05:45:35;;;;;;;3.9;2.6;;;;;;;6.73;90.83203;947.8161;;;;
2023/01/03 05:48:01;;;;;;;3.2;2.6;;;;;;;6.66;90.89551;947.7946;;;;
2023/01/03 05:50:27;;;;;;;2.8;2.4;;;;;;;6.62;90.80664;947.7944;;;;
2023/01/03 05:52:53;;;;;;;4.1;2.6;;;;;;;6.61;91.1123;947.7894;;;;
2023/01/03 05:55:18;;;;;;;3.8;2.5;;;;;;;6.69;90.86914;947.7665;;;;
2023/01/03 05:57:47;;;;;;;4.5;2.9;;;;;;;6.76;90.82617;947.7831;;;;
2023/01/03 06:00:12;;;;;;;2.8;2.3;;;;;;;6.78;90.75293;947.8436;;;;
2023/01/03 06:02:37;;;;;;;4.1;2.7;;;;;;;6.81;90.56641;947.7597;;;;
2023/01/03 06:05:06;;;;;;;4.2;2.9;;;;;;;6.83;90.54883;947.8554;;;;
2023/01/03 06:07:32;;;;;;;4.4;2.6;;;;;;;6.84;90.36816;947.866;;;;
2023/01/03 06:14:04;;;;;;;3.9;3.4;;;;;;;6.91;90.10059;947.7753;;;;
2023/01/03 06:18:54;;;;;;;8.4;5;;;;;;;6.85;90.44922;947.7239;;;;
2023/01/03 06:21:24;;;;;;;8.6;5.8;;;;;;;6.89;90.31152;947.7047;;;;
2023/01/03 06:23:49;;;;;;;10.5;6.2;;;;;;;6.91;90.05469;947.6817;;;;
2023/01/03 06:26:19;;;;;;;8.9;6.3;;;;;;;6.99;89.73242;947.6713;;;;
2023/01/03 06:28:49;;;;;;;10;5.8;;;;;;;7.03;89.10547;947.6273;;;;
2023/01/03 06:31:13;;;;;;;8.8;5.8;;;;;;;7.09;88.98242;947.7072;;;;
2023/01/03 06:33:41;;;;;;;9.2;5.6;;;;;;;7.16;88.42969;947.7278;;;;
2023/01/03 06:36:06;;;;;;;8.2;5.7;;;;;;;7.2;88.20117;947.7587;;;;
2023/01/03 06:38:34;;;;;;;7.8;6.2;;;;;;;7.22;88.34082;947.7842;;;;
2023/01/03 06:41:05;;;;;;;7.7;5.6;;;;;;;7.18;88.66016;947.8087;;;;
2023/01/03 06:43:35;;;;;;;6.4;4.9;;;;;;;7.18;88.82031;947.8;;;;
2023/01/03 06:53:41;;;;;;;49.5;22.9;;;;;;;6.97;89.83008;947.9899;;;;
2023/01/03 06:56:06;;;;;;;28.1;14.2;;;;;;;6.81;90.89453;948.046;;;;
2023/01/03 06:58:38;;;;;;;18.2;9.7;;;;;;;6.75;91.53711;948.1082;;;;
2023/01/03 07:01:10;;;;;;;8.2;5.5;;;;;;;6.86;91.15527;948.0726;;;;
2023/01/03 07:06:30;;;;;;;10.7;6.3;;;;;;;6.98;90.4668;948.0804;;;;
2023/01/03 07:08:57;;;;;;;10;6.4;;;;;;;7.02;90.27051;948.1335;;;;
2023/01/03 07:11:23;;;;;;;6.8;4.4;;;;;;;7.01;90.3584;948.1594;;;;
2023/01/03 07:14:55;;;;;;;7.1;3.9;;;;;;;7.07;90.29102;948.1656;;;;
2023/01/03 07:22:47;;;;;;;4.7;3.5;;;;;;;7.16;90.04004;948.2999;;;;
2023/01/03 07:25:13;;;;;;;6.5;4.1;;;;;;;7.12;90.15527;948.2752;;;;
2023/01/03 07:31:27;;;;;;;7.5;4.7;;;;;;;7.05;90.43457;948.2528;;;;
2023/01/03 07:33:54;;;;;;;6.5;4.4;;;;;;;7.05;90.26465;948.2037;;;;
2023/01/03 07:37:44;;;;;;;7.1;4.2;;;;;;;7.1;90.09277;948.2656;;;;
2023/01/03 07:39:51;;;;;;;8.2;5.9;;;;;;;7.16;90.27637;948.2927;;;;
2023/01/03 07:44:42;;;;;;;9.3;5.2;;;;;;;7.12;90.61914;948.3633;;;;
2023/01/03 07:47:07;;;;;;;9.9;5.8;;;;;;;7.17;90.65332;948.2883;;;;
2023/01/03 07:49:35;;;;;;;10.4;6;;;;;;;7.24;90.48535;948.2175;;;;
2023/01/03 07:52:00;;;;;;;7.5;5.5;;;;;;;7.29;90.23633;948.248;;;;
2023/01/03 07:54:29;;;;;;;5.8;4.2;;;;;;;7.31;90.05859;948.3026;;;;
2023/01/03 07:56:54;;;;;;;4.7;3.3;;;;;;;7.29;90.25879;948.3265;;;;
2023/01/03 07:59:22;;;;;;;4.8;3;;;;;;;7.37;90.06055;948.3231;;;;
2023/01/03 08:01:47;;;;;;;6.1;2.9;;;;;;;7.39;89.6582;948.3113;;;;
2023/01/03 08:07:18;;;;;;;3.9;3.1;;;;;;;7.39;89.64551;948.4434;;;;
2023/01/03 08:14:36;;;;;;;6;3.4;;;;;;;7.15;91.08984;948.5701;;;;
2023/01/03 08:17:01;;;;;;;5;3.6;;;;;;;7.22;91.00293;948.5288;;;;
2023/01/03 08:19:30;;;;;;;6.6;3.8;;;;;;;7.2;90.51172;948.5698;;;;
2023/01/03 08:21:55;;;;;;;5.7;4.1;;;;;;;7.17;91.12988;948.6281;;;;
2023/01/03 08:24:21;;;;;;;5.2;3.6;;;;;;;7.25;91.00879;948.6638;;;;
2023/01/03 08:26:47;;;;;;;4.2;3.4;;;;;;;7.27;91.39746;948.6534;;;;
2023/01/03 08:29:12;;;;;;;5.9;3.6;;;;;;;7.3;92.30078;948.6926;;;;
2023/01/03 08:31:36;;;;;;;6;3.7;;;;;;;7.43;92.96289;948.7227;;;;
2023/01/03 08:34:03;;;;;;;6.3;4.2;;;;;;;7.47;93.6416;948.7797;;;;
2023/01/03 08:36:31;;;;;;;6.6;4.4;;;;;;;7.43;94.75391;948.7519;;;;
2023/01/03 08:39:06;;;;;;;6.5;4.5;;;;;;;7.5;95.09863;948.765;;;;
2023/01/03 08:41:31;;;;;;;11.6;6.5;;;;;;;7.42;96.11426;948.7746;;;;
2023/01/03 08:43:57;;;;;;;10.9;7.4;;;;;;;7.53;95.94336;948.8808;;;;
2023/01/03 08:46:22;;;;;;;5.9;4;;;;;;;7.48;96.2959;948.8713;;;;
2023/01/03 08:48:47;;;;;;;5.4;3.9;;;;;;;7.44;96.75293;948.8483;;;;
2023/01/03 08:51:16;;;;;;;4.5;3.7;;;;;;;7.41;97.17383;948.8736;;;;
2023/01/03 08:53:41;;;;;;;4.5;3.5;;;;;;;7.38;97.39648;948.9328;;;;
2023/01/03 08:56:08;;;;;;;3.4;3.1;;;;;;;7.33;97.68945;948.9711;;;;
2023/01/03 08:58:33;;;;;;;2.7;2.5;;;;;;;7.27;98.30957;948.9529;;;;
2023/01/03 09:01:42;;;;;;;3.5;2.9;;;;;;;7.31;98.49219;949.0173;;;;
2023/01/03 09:04:20;;;;;;;3;2.6;;;;;;;7.38;98.43652;949.0397;;;;
2023/01/03 09:06:50;;;;;;;4.2;3;;;;;;;7.49;98.19141;949.045;;;;
2023/01/03 09:09:16;;;;;;;4.2;3.3;;;;;;;7.61;97.64063;949.0455;;;;
2023/01/03 09:11:46;;;;;;;3;2.6;;;;;;;7.71;97.0957;949.0598;;;;
2023/01/03 09:14:11;;;;;;;4;2.9;;;;;;;7.73;96.61426;949.0869;;;;
2023/01/03 09:16:42;;;;;;;3.9;3.6;;;;;;;7.75;96.3916;949.0419;;;;
2023/01/03 09:19:12;;;;;;;3.2;2.9;;;;;;;7.67;96.7002;949.1328;;;;
2023/01/03 09:21:37;;;;;;;3.1;2.7;;;;;;;7.6;96.99219;949.111;;;;
2023/01/03 09:24:05;;;;;;;3.1;2.8;;;;;;;7.61;96.99414;949.1339;;;;
2023/01/03 09:26:30;;;;;;;3.7;2.7;;;;;;;7.61;96.85938;949.1642;;;;
2023/01/03 09:28:56;;;;;;;2.7;2.4;;;;;;;7.38;97.53223;949.2275;;;;
2023/01/03 09:31:21;;;;;;;4.9;2.6;;;;;;;7.44;98.39453;949.238;;;;
2023/01/03 09:33:51;;;;;;;3.6;2.6;;;;;;;7.53;97.82617;949.2628;;;;
2023/01/03 09:36:21;;;;;;;3.3;2.5;;;;;;;7.43;98.2002;949.241;;;;
2023/01/03 09:38:47;;;;;;;2.3;2.1;;;;;;;7.48;98.17871;949.3522;;;;
2023/01/03 09:41:12;;;;;;;3;2.5;;;;;;;7.46;98.18555;949.3563;;;;
2023/01/03 09:43:39;;;;;;;4.6;2.6;;;;;;;7.51;98.11426;949.3983;;;;
2023/01/03 09:46:23;;;;;;;2.6;2.4;;;;;;;7.4;98.38672;949.4208;;;;
2023/01/03 09:48:51;;;;;;;2.6;2.3;;;;;;;7.51;98.12793;949.3574;;;;
2023/01/03 10:03:46;;;;;;;2.1;1.9;;;;;;;7.53;97.45117;949.3114;;;;
2023/01/03 10:05:56;;;;;;;2.2;2;;;;;;;7.53;97.74609;949.2659;;;;
2023/01/03 10:08:25;;;;;;;2.3;2;;;;;;;7.46;98.29688;949.3458;;;;
2023/01/03 10:10:54;;;;;;;2.6;2.2;;;;;;;7.51;97.98926;949.3237;;;;
2023/01/03 10:13:30;;;;;;;2.9;2.2;;;;;;;7.44;98.2832;949.3253;;;;
2023/01/03 10:16:09;;;;;;;2.2;2;;;;;;;7.54;97.84082;949.3077;;;;
2023/01/03 10:18:32;;;;;;;2.2;2;;;;;;;7.55;97.66211;949.2346;;;;
2023/01/03 10:21:00;;;;;;;2.5;1.7;;;;;;;7.65;97.23047;949.2661;;;;
2023/01/03 10:23:29;;;;;;;3.2;1.7;;;;;;;7.71;96.88184;949.3336;;;;
2023/01/03 10:25:55;;;;;;;2.2;1.6;;;;;;;7.7;96.77637;949.3283;;;;
2023/01/03 10:28:24;;;;;;;2;1.7;;;;;;;7.57;97.06543;949.3175;;;;
2023/01/03 10:30:52;;;;;;;1.7;1.6;;;;;;;7.68;97.05566;949.3689;;;;
2023/01/03 10:33:18;;;;;;;1.8;1.4;;;;;;;7.75;96.27734;949.3723;;;;
2023/01/03 10:35:43;;;;;;;1.6;1.5;;;;;;;7.55;96.62988;949.298;;;;
2023/01/03 10:38:08;;;;;;;2.4;1.6;;;;;;;7.71;96.65527;949.313;;;;
2023/01/03 10:40:33;;;;;;;1.4;1.3;;;;;;;7.67;96.44141;949.3122;;;;
2023/01/03 10:42:58;;;;;;;1.9;1.5;;;;;;;7.83;96.18262;949.2724;;;;
2023/01/03 10:45:23;;;;;;;1.3;1.2;;;;;;;7.89;95.1416;949.2813;;;;
2023/01/03 10:47:52;;;;;;;1.7;1.4;;;;;;;8;95.14063;949.2263;;;;
2023/01/03 10:50:17;;;;;;;1.7;1.5;;;;;;;8.19;95.47754;949.1964;;;;
2023/01/03 10:52:48;;;;;;;1.6;1.4;;;;;;;8.23;93.7959;949.1696;;;;
2023/01/03 10:55:15;;;;;;;2;1.4;;;;;;;8.12;93.61328;949.1462;;;;
2023/01/03 10:57:45;;;;;;;2;1.6;;;;;;;8.18;93.44531;949.1794;;;;
2023/01/03 11:00:08;;;;;;;1.6;1.5;;;;;;;8.12;93.74707;949.1572;;;;
2023/01/03 11:02:33;;;;;;;2;1.4;;;;;;;8.29;93.51367;949.163;;;;
2023/01/03 11:04:58;;;;;;;1.5;1.4;;;;;;;8.44;92.88672;949.1122;;;;
2023/01/03 11:07:28;;;;;;;1.2;1.1;;;;;;;8.41;91.86719;949.0506;;;;
2023/01/03 11:09:56;;;;;;;1.7;1.4;;;;;;;8.45;92.18359;949.1523;;;;
2023/01/03 11:12:22;;;;;;;2;1.3;;;;;;;8.42;92.03027;949.1426;;;;
2023/01/03 11:14:47;;;;;;;1.8;1.3;;;;;;;8.44;91.88672;949.1456;;;;
2023/01/03 11:17:12;;;;;;;1.5;1.3;;;;;;;8.46;91.77637;949.1797;;;;
2023/01/03 11:19:41;;;;;;;1.6;1.2;;;;;;;8.35;92.24219;949.1502;;;;
2023/01/03 11:22:06;;;;;;;1.7;1.4;;;;;;;8.44;92.11426;949.0402;;;;
2023/01/03 11:24:31;;;;;;;1.2;1.1;;;;;;;8.52;92.08594;949.1389;;;;
2023/01/03 11:26:59;;;;;;;1.3;1.2;;;;;;;8.41;91.87891;949.1188;;;;
2023/01/03 11:29:24;;;;;;;1.4;1.3;;;;;;;8.37;92.20215;949.0988;;;;
2023/01/03 11:31:50;;;;;;;1.4;1.3;;;;;;;8.45;91.72949;949.0396;;;;
2023/01/03 11:34:14;;;;;;;1.8;1.1;;;;;;;8.34;91.94531;948.9745;;;;
2023/01/03 11:36:39;;;;;;;2;1.6;;;;;;;8.27;92.03125;949.0108;;;;
2023/01/03 11:39:08;;;;;;;2.1;1.4;;;;;;;8.35;92.63965;948.9614;;;;
2023/01/03 11:41:38;;;;;;;2;1.4;;;;;;;8.32;92.05469;948.8544;;;;
2023/01/03 11:44:03;;;;;;;1.5;1.4;;;;;;;8.42;92.28027;948.8791;;;;
2023/01/03 11:46:35;;;;;;;1.2;1.1;;;;;;;8.5;91.99121;948.8463;;;;
2023/01/03 11:49:00;;;;;;;1.4;1.2;;;;;;;8.57;91.19922;948.8884;;;;
2023/01/03 11:51:25;;;;;;;1.4;1.3;;;;;;;8.57;91.0293;948.8359;;;;
2023/01/03 11:53:50;;;;;;;1.4;1.3;;;;;;;8.63;90.82422;948.7826;;;;
2023/01/03 11:56:17;;;;;;;2;1.4;;;;;;;8.64;90.15723;948.8013;;;;
2023/01/03 11:59:53;;;;;;;1.8;1.7;;;;;;;8.49;90.98926;948.7037;;;;
2023/01/03 12:02:19;;;;;;;2.6;1.9;;;;;;;8.47;90.90332;948.7031;;;;
2023/01/03 12:04:44;;;;;;;3.4;1.9;;;;;;;8.26;91.44141;948.728;;;;
2023/01/03 12:07:13;;;;;;;2.9;2.2;;;;;;;8.22;92.2832;948.6861;;;;
2023/01/03 12:09:41;;;;;;;3.1;2.2;;;;;;;8.24;91.94629;948.7899;;;;
2023/01/03 12:12:06;;;;;;;2.5;2.1;;;;;;;8.33;92.11133;948.7579;;;;
2023/01/03 12:14:34;;;;;;;3.1;2;;;;;;;8.35;91.79883;948.7852;;;;
2023/01/03 12:16:59;;;;;;;2;1.8;;;;;;;8.21;92.70117;948.7601;;;;
2023/01/03 12:19:29;;;;;;;4.5;2;;;;;;;8.05;92.72559;948.7822;;;;
2023/01/03 12:21:54;;;;;;;2.6;2.1;;;;;;;8.15;93.07422;948.7839;;;;
2023/01/03 12:24:19;;;;;;;4;2.1;;;;;;;8.2;92.94922;948.7184;;;;
2023/01/03 12:26:44;;;;;;;3.2;2.4;;;;;;;8.18;92.92285;948.6939;;;;
2023/01/03 12:29:12;;;;;;;4.4;2.7;;;;;;;8.24;93.13867;948.6851;;;;
2023/01/03 12:31:39;;;;;;;2.9;2.3;;;;;;;8.2;92.64258;948.7033;;;;
2023/01/03 12:34:08;;;;;;;2.9;2.6;;;;;;;8.39;92.71777;948.6897;;;;
2023/01/03 12:36:35;;;;;;;4.1;2.8;;;;;;;8.47;91.7334;948.6707;;;;
2023/01/03 12:39:00;;;;;;;4.1;3;;;;;;;8.58;91.31543;948.6919;;;;
2023/01/03 12:41:31;;;;;;;4.2;2.9;;;;;;;8.61;90.77539;948.6752;;;;
2023/01/03 12:44:01;;;;;;;3.1;2.4;;;;;;;8.66;90.38672;948.6375;;;;
2023/01/03 12:46:26;;;;;;;5.3;2.7;;;;;;;8.77;90.12695;948.6221;;;;
2023/01/03 12:48:58;;;;;;;3.1;2.6;;;;;;;8.87;89.50879;948.6063;;;;
2023/01/03 12:51:23;;;;;;;3.5;2.6;;;;;;;8.93;89.16016;948.5499;;;;
2023/01/03 12:53:51;;;;;;;3.5;2.8;;;;;;;8.92;88.71289;948.5256;;;;
2023/01/03 12:56:16;;;;;;;2.9;2.4;;;;;;;8.88;88.94434;948.5347;;;;
2023/01/03 12:58:41;;;;;;;3.4;2.4;;;;;;;8.69;89.37305;948.4894;;;;
2023/01/03 13:01:09;;;;;;;3.6;2.4;;;;;;;8.67;89.86719;948.4981;;;;
2023/01/03 13:03:38;;;;;;;2.8;2.3;;;;;;;8.55;90.47754;948.4772;;;;
2023/01/03 13:06:08;;;;;;;3.6;2.3;;;;;;;8.57;90.70898;948.4856;;;;
2023/01/03 13:08:33;;;;;;;3.4;2.9;;;;;;;8.72;90.70703;948.5466;;;;
2023/01/03 13:10:59;;;;;;;4.6;2.8;;;;;;;8.78;90.32031;948.5667;;;;
2023/01/03 13:13:27;;;;;;;3.4;2.8;;;;;;;8.87;89.76074;948.5764;;;;
2023/01/03 13:15:53;;;;;;;3.9;2.5;;;;;;;8.93;89.2832;948.5528;;;;
2023/01/03 13:18:21;;;;;;;2.6;2.2;;;;;;;8.86;88.86035;948.5705;;;;
2023/01/03 13:20:46;;;;;;;3.2;2.4;;;;;;;8.83;89.27441;948.5648;;;;
2023/01/03 13:23:11;;;;;;;4.9;2.9;;;;;;;8.82;89.37695;948.5256;;;;
2023/01/03 13:25:39;;;;;;;3.2;2.2;;;;;;;8.75;89.41602;948.5214;;;;
2023/01/03 13:28:05;;;;;;;16.7;8.5;;;;;;;8.78;89.71777;948.5858;;;;
2023/01/03 13:30:30;;;;;;;12.8;6.7;;;;;;;8.84;89.37793;948.5842;;;;
2023/01/03 13:32:58;;;;;;;2.3;2.1;;;;;;;8.82;88.72852;948.5011;;;;
2023/01/03 13:35:23;;;;;;;3.8;2.6;;;;;;;8.85;88.72266;948.5892;;;;
2023/01/03 13:37:50;;;;;;;3;2.1;;;;;;;8.87;88.54199;948.6375;;;;
2023/01/03 13:40:17;;;;;;;3.2;2.5;;;;;;;8.96;88.4248;948.6578;;;;
2023/01/03 13:42:41;;;;;;;3.7;2.8;;;;;;;8.9;88.40234;948.7051;;;;
2023/01/03 13:45:06;;;;;;;4.3;3.1;;;;;;;8.88;88.58008;948.7506;;;;
2023/01/03 13:47:41;;;;;;;4.2;3.5;;;;;;;8.9;88.74316;948.7109;;;;
2023/01/03 13:50:06;;;;;;;5.2;3.9;;;;;;;8.87;88.64648;948.7106;;;;
2023/01/03 13:52:31;;;;;;;4;3.3;;;;;;;8.88;88.53516;948.7444;;;;
2023/01/03 13:54:58;;;;;;;3;2.4;;;;;;;8.89;88.10449;948.7279;;;;
2023/01/03 13:57:23;;;;;;;3;2.7;;;;;;;8.91;88.04004;948.6888;;;;
2023/01/03 13:59:48;;;;;;;3.1;2.3;;;;;;;8.98;88.12305;948.7704;;;;
2023/01/03 14:02:13;;;;;;;3.6;2.6;;;;;;;8.97;88.18945;948.7583;;;;
2023/01/03 14:04:39;;;;;;;4.1;3.7;;;;;;;8.89;88.60449;948.7789;;;;
2023/01/03 14:08:24;;;;;;;2.8;2.3;;;;;;;8.87;89.53418;948.7527;;;;
2023/01/03 14:10:50;;;;;;;3.9;2.9;;;;;;;8.73;89.94727;948.6811;;;;
2023/01/03 14:13:18;;;;;;;3.6;2.1;;;;;;;8.69;90.58789;948.8059;;;;
2023/01/03 14:15:52;;;;;;;4.2;2.3;;;;;;;8.72;90.68652;948.8015;;;;
2023/01/03 14:18:19;;;;;;;3.9;2.4;;;;;;;8.71;90.18066;948.8026;;;;
2023/01/03 14:20:44;;;;;;;3.9;2.5;;;;;;;8.69;89.98535;948.9124;;;;
2023/01/03 14:23:09;;;;;;;4.1;2.6;;;;;;;8.57;90.60645;948.9031;;;;
2023/01/03 14:25:36;;;;;;;3.3;2.4;;;;;;;8.56;91.20898;948.9547;;;;
2023/01/03 14:28:01;;;;;;;2.9;2.3;;;;;;;8.57;91.44922;948.9724;;;;
2023/01/03 14:30:26;;;;;;;3.4;2.3;;;;;;;8.54;91.44141;948.9745;;;;
2023/01/03 14:32:55;;;;;;;2.6;2.1;;;;;;;8.53;91.78125;948.9678;;;;
2023/01/03 14:35:20;;;;;;;2.8;2;;;;;;;8.58;91.69043;948.9713;;;;
2023/01/03 14:37:45;;;;;;;3.1;2.2;;;;;;;8.54;91.23926;949.0247;;;;
2023/01/03 14:40:16;;;;;;;3.6;2.6;;;;;;;8.49;91.18262;949.058;;;;
2023/01/03 14:42:43;;;;;;;4.2;3;;;;;;;8.44;91.33203;949.0625;;;;
2023/01/03 14:45:08;;;;;;;5.4;2.8;;;;;;;8.5;91.26367;949.0598;;;;
2023/01/03 14:47:37;;;;;;;3.4;2.9;;;;;;;8.39;91.36523;949.0636;;;;
2023/01/03 14:50:09;;;;;;;5.1;3.4;;;;;;;8.42;91.47363;949.0641;;;;
2023/01/03 14:52:34;;;;;;;3.8;3.1;;;;;;;8.34;91.38867;949.0888;;;;
2023/01/03 14:54:59;;;;;;;6.2;4.4;;;;;;;8.29;91.56055;949.101;;;;
2023/01/03 14:57:24;;;;;;;6.6;4.4;;;;;;;8.26;92.22461;949.1142;;;;
2023/01/03 14:59:49;;;;;;;3.5;2.9;;;;;;;8.32;92.21387;949.1268;;;;
2023/01/03 15:02:15;;;;;;;3;2.7;;;;;;;8.12;92.33984;949.1517;;;;
2023/01/03 15:04:40;;;;;;;4;2.8;;;;;;;8.2;92.69727;949.1807;;;;
2023/01/03 15:07:08;;;;;;;4.4;3.1;;;;;;;8.19;92.75195;949.1644;;;;
2023/01/03 15:10:43;;;;;;;4.5;3;;;;;;;8.25;92.6748;949.1821;;;;
2023/01/03 15:13:08;;;;;;;3.4;2.9;;;;;;;8.23;92.64844;949.2449;;;;
2023/01/03 15:15:38;;;;;;;3.8;2.8;;;;;;;8.25;92.70898;949.2668;;;;
2023/01/03 15:18:07;;;;;;;4.5;3;;;;;;;8.11;92.86133;949.2658;;;;
2023/01/03 15:20:32;;;;;;;3.5;2.8;;;;;;;8.14;93.27637;949.1826;;;;
2023/01/03 15:22:57;;;;;;;3.9;3.2;;;;;;;8.14;93.27637;949.2081;;;;
2023/01/03 15:25:28;;;;;;;3.9;3.3;;;;;;;8.16;93.13281;949.2522;;;;
2023/01/03 15:27:53;;;;;;;5;3.6;;;;;;;8.12;93.53125;949.2174;;;;
2023/01/03 15:30:22;;;;;;;5.7;4.1;;;;;;;8.09;93.45801;949.3539;;;;
2023/01/03 15:32:47;;;;;;;14;11.1;;;;;;;7.97;94.47461;949.3791;;;;
2023/01/03 15:35:12;;;;;;;8.8;6.9;;;;;;;7.83;95.43164;949.3826;;;;
2023/01/03 15:37:41;;;;;;;7.7;5.8;;;;;;;7.79;96.24023;949.4135;;;;
2023/01/03 15:40:12;;;;;;;6.7;5;;;;;;;7.78;96.39746;949.3617;;;;
2023/01/03 15:45:04;;;;;;;4.9;3.7;;;;;;;7.83;96.78223;949.4872;;;;
2023/01/03 15:47:34;;;;;;;5.1;4.6;;;;;;;7.85;96.52734;949.5317;;;;
2023/01/03 15:49:59;;;;;;;5.1;3.3;;;;;;;7.84;96.64746;949.5503;;;;
2023/01/03 15:52:29;;;;;;;5.8;4.5;;;;;;;7.81;96.52832;949.5875;;;;
2023/01/03 15:54:57;;;;;;;5.4;4.3;;;;;;;7.74;96.83105;949.5575;;;;
2023/01/03 15:57:22;;;;;;;10.4;8.4;;;;;;;7.69;97.35254;949.6086;;;;
2023/01/03 15:59:50;;;;;;;5.8;5.2;;;;;;;7.62;97.63281;949.6529;;;;
2023/01/03 16:02:15;;;;;;;7.1;6.1;;;;;;;7.58;97.89453;949.6478;;;;
2023/01/03 16:04:40;;;;;;;6.1;4.4;;;;;;;7.56;98.18555;949.7175;;;;
2023/01/03 16:07:07;;;;;;;6.6;4.8;;;;;;;7.53;98.33594;949.7186;;;;
2023/01/03 16:09:32;;;;;;;7.3;5;;;;;;;7.56;98.37598;949.7395;;;;
2023/01/03 16:11:57;;;;;;;9;6.2;;;;;;;7.54;98.41992;949.7017;;;;
2023/01/03 16:14:25;;;;;;;13.4;9.6;;;;;;;7.62;98.36816;949.7731;;;;
2023/01/03 16:16:50;;;;;;;13.6;8.4;;;;;;;7.63;98.23438;949.7687;;;;
2023/01/03 16:19:15;;;;;;;11;9.7;;;;;;;7.58;98.21191;949.7783;;;;
2023/01/03 16:21:44;;;;;;;9;7.1;;;;;;;7.62;98.03027;949.8606;;;;
2023/01/03 16:24:09;;;;;;;11.2;7.9;;;;;;;7.63;97.98438;949.818;;;;
2023/01/03 16:26:34;;;;;;;9;7;;;;;;;7.58;98.01953;949.8624;;;;
2023/01/03 16:29:01;;;;;;;9.1;6.5;;;;;;;7.61;98.16211;949.8953;;;;
2023/01/03 16:31:26;;;;;;;11.6;8.2;;;;;;;7.6;98.30762;949.8354;;;;
2023/01/03 16:33:53;;;;;;;77.2;43.3;;;;;;;7.53;98.69922;949.8669;;;;
2023/01/03 16:36:18;;;;;;;13.3;9.2;;;;;;;7.61;98.71777;949.8695;;;;
2023/01/03 16:38:47;;;;;;;10.9;7.9;;;;;;;7.63;98.3252;949.9036;;;;
2023/01/03 16:41:12;;;;;;;24.5;18;;;;;;;7.56;98.75;949.9075;;;;
2023/01/03 16:43:39;;;;;;;22.1;15.1;;;;;;;7.51;99.35059;949.8516;;;;
2023/01/03 16:46:04;;;;;;;33.3;21.5;;;;;;;7.47;99.38965;949.9533;;;;
2023/01/03 16:48:31;;;;;;;23.7;16.7;;;;;;;7.35;99.80176;949.926;;;;
2023/01/03 16:50:56;;;;;;;41.9;27.5;;;;;;;7.28;100;949.9341;;;;
2023/01/03 16:53:21;;;;;;;40;26.2;;;;;;;7.43;100;949.938;;;;
2023/01/03 16:55:52;;;;;;;28.8;18.5;;;;;;;7.47;99.87695;949.9143;;;;
2023/01/03 16:58:14;;;;;;;25.7;16.6;;;;;;;7.39;100;949.9135;;;;
2023/01/03 17:00:40;;;;;;;25.7;16.8;;;;;;;7.28;100;949.9549;;;;
2023/01/03 17:03:05;;;;;;;25.2;17.4;;;;;;;7.26;100;949.9833;;;;
2023/01/03 17:05:34;;;;;;;21.1;16.4;;;;;;;7.24;100;949.965;;;;
2023/01/03 17:08:01;;;;;;;18;12.5;;;;;;;7.28;100;949.9083;;;;
2023/01/03 17:10:29;;;;;;;13.1;9.2;;;;;;;7.32;100;949.8845;;;;
2023/01/03 17:12:54;;;;;;;15.9;10.5;;;;;;;7.41;99.90918;949.8273;;;;